Terminal Aerodrome Forecast
Issued by NWS

Home | Current Version | Previous Version | Text Only | Print | Product List | Glossary On
Versions: 1 2 3 4 5 6 7 8 9 10 11 12 13 14 15 16 17 18 19 20 21 22 23 24 25 26 27 28
006
FTUS46 KMTR 071720
TAFSFO
TAF
KSFO 071720Z 0718/0824 15009KT P6SM FEW015 SCT120 BKN150
     FM072000 11005KT P6SM VCSH SCT050 BKN060 OVC080
     FM072200 11005KT P6SM -RA BKN040 OVC060
      TEMPO 0801/0805 6SM RA BR BKN025 OVC040
     FM080500 12012G18KT P6SM -RA BKN025 OVC040
     FM081200 15010KT P6SM -RA BKN020 OVC035
      TEMPO 0818/0822 4SM -RA BR BKN015 OVC020=

USA.gov is the U.S. government's official web portal to all federal, state and local government web resources and services.